createdAt,value
2018-06-13T00:02:05.775Z,1.63
2018-06-13T00:04:34.337Z,1.60
2018-06-13T00:07:02.637Z,1.90
2018-06-13T00:09:30.882Z,1.50
2018-06-13T00:11:59.118Z,1.47
2018-06-13T00:14:27.633Z,1.80
2018-06-13T00:16:56.134Z,1.77
2018-06-13T00:19:24.712Z,2.00
2018-06-13T00:21:53.251Z,1.80
2018-06-13T00:24:21.771Z,1.93
2018-06-13T00:26:50.271Z,2.20
2018-06-13T00:29:18.803Z,2.10
2018-06-13T00:31:47.376Z,2.47
2018-06-13T00:34:15.709Z,2.30
2018-06-13T00:36:44.257Z,2.27
2018-06-13T00:39:12.782Z,2.23
2018-06-13T00:41:41.391Z,2.17
2018-06-13T00:44:09.913Z,2.40
2018-06-13T00:46:38.118Z,2.13
2018-06-13T00:49:06.564Z,2.50
2018-06-13T00:51:35.093Z,2.17
2018-06-13T00:54:03.655Z,2.33
2018-06-13T00:56:32.325Z,2.37
2018-06-13T00:59:00.826Z,2.80
2018-06-13T01:01:30.134Z,2.67
2018-06-13T01:03:58.656Z,2.50
2018-06-13T01:06:28.121Z,2.30
2018-06-13T01:08:56.622Z,2.67
2018-06-13T01:11:25.191Z,3.07
2018-06-13T01:13:53.382Z,2.40
2018-06-13T01:16:21.904Z,2.67
2018-06-13T01:18:50.392Z,2.43
2018-06-13T01:21:21.084Z,2.70
2018-06-13T01:23:49.681Z,2.30
2018-06-13T01:26:19.444Z,2.00
2018-06-13T01:28:47.916Z,2.47
2018-06-13T01:31:16.418Z,2.47
2018-06-13T01:33:44.969Z,2.20
2018-06-13T01:36:13.467Z,2.17
2018-06-13T01:38:42.024Z,2.27
2018-06-13T01:41:10.226Z,2.30
2018-06-13T01:43:38.707Z,2.17
2018-06-13T01:46:07.159Z,2.37
2018-06-13T01:48:35.583Z,2.73
2018-06-13T01:51:04.052Z,2.70
2018-06-13T01:53:32.200Z,2.50
2018-06-13T01:56:00.619Z,2.60
2018-06-13T01:58:29.081Z,2.53
2018-06-13T02:00:57.520Z,3.13
2018-06-13T02:03:25.967Z,3.37
2018-06-13T02:05:54.443Z,3.20
2018-06-13T02:08:22.588Z,3.00
2018-06-13T02:10:51.103Z,2.50
2018-06-13T02:13:19.551Z,2.70
2018-06-13T02:15:48.041Z,2.30
2018-06-13T02:18:16.465Z,3.30
2018-06-13T02:20:44.938Z,2.70
2018-06-13T02:23:13.084Z,2.90
2018-06-13T02:25:41.523Z,2.50
2018-06-13T02:28:10.209Z,2.77
2018-06-13T02:30:38.667Z,2.93
2018-06-13T02:33:06.850Z,2.97
2018-06-13T02:35:35.334Z,2.80
2018-06-13T02:38:04.347Z,2.77
2018-06-13T02:40:32.494Z,2.80
2018-06-13T02:43:00.906Z,2.70
2018-06-13T02:45:29.365Z,2.57
2018-06-13T02:47:57.832Z,2.67
2018-06-13T02:50:26.267Z,2.40
2018-06-13T02:52:54.729Z,2.67
2018-06-13T02:55:23.169Z,2.23
2018-06-13T02:57:51.622Z,3.17
2018-06-13T03:03:08.283Z,3.00
2018-06-13T03:05:36.819Z,2.43
2018-06-13T03:08:05.335Z,2.57
2018-06-13T03:10:33.820Z,2.47
2018-06-13T03:13:02.262Z,2.40
2018-06-13T03:15:30.794Z,2.10
2018-06-13T03:17:59.242Z,2.70
2018-06-13T03:20:27.692Z,2.20
2018-06-13T03:22:56.189Z,1.90
2018-06-13T03:25:24.708Z,2.03
2018-06-13T03:27:53.184Z,1.90
2018-06-13T03:30:21.686Z,2.10
2018-06-13T03:32:50.556Z,2.30
2018-06-13T03:35:19.054Z,2.50
2018-06-13T03:37:47.558Z,2.10
2018-06-13T03:40:16.026Z,2.53
2018-06-13T03:42:44.510Z,2.00
2018-06-13T03:45:12.991Z,2.17
2018-06-13T03:47:41.481Z,2.10
2018-06-13T03:50:11.338Z,2.10
2018-06-13T03:52:40.177Z,2.10
2018-06-13T03:55:08.666Z,1.90
2018-06-13T03:57:37.146Z,2.10
2018-06-13T04:00:05.713Z,2.10
2018-06-13T04:02:34.144Z,1.80
2018-06-13T04:05:02.595Z,1.80
2018-06-13T04:07:31.169Z,2.00
2018-06-13T04:09:59.692Z,1.70
2018-06-13T04:12:28.160Z,1.80
2018-06-13T04:14:56.601Z,2.27
2018-06-13T04:17:25.046Z,2.10
2018-06-13T04:19:53.549Z,2.00
2018-06-13T04:22:22.062Z,2.10
2018-06-13T04:24:50.454Z,1.97
2018-06-13T04:27:18.929Z,2.07
2018-06-13T04:29:47.410Z,2.00
2018-06-13T04:32:15.947Z,2.23
2018-06-13T04:34:44.430Z,1.90
2018-06-13T04:37:12.904Z,2.20
2018-06-13T04:39:41.375Z,1.90
2018-06-13T04:42:09.862Z,2.30
2018-06-13T04:44:38.290Z,2.27
2018-06-13T04:47:06.761Z,2.40
2018-06-13T04:49:35.193Z,2.10
2018-06-13T04:52:03.678Z,1.97
2018-06-13T04:54:32.136Z,1.97
2018-06-13T04:57:00.650Z,2.73
2018-06-13T04:59:29.277Z,2.07
2018-06-13T05:01:57.739Z,2.23
2018-06-13T05:04:26.229Z,2.10
2018-06-13T05:06:54.722Z,1.83
2018-06-13T05:09:23.211Z,3.07
2018-06-13T05:11:51.669Z,2.10
2018-06-13T05:14:20.135Z,2.07
2018-06-13T05:16:49.020Z,1.90
2018-06-13T05:19:17.912Z,2.30
2018-06-13T05:21:46.363Z,1.80
2018-06-13T05:24:14.842Z,3.00
2018-06-13T05:26:43.349Z,1.77
2018-06-13T05:29:11.835Z,2.67
2018-06-13T05:31:40.342Z,2.13
2018-06-13T05:34:08.805Z,2.77
2018-06-13T05:36:37.278Z,1.87
2018-06-13T05:39:07.700Z,1.83
2018-06-13T05:41:36.250Z,2.30
2018-06-13T05:44:04.692Z,2.23
2018-06-13T05:46:33.139Z,1.80
2018-06-13T05:49:01.602Z,2.27
2018-06-13T05:51:30.048Z,1.90
2018-06-13T05:53:58.553Z,2.03
2018-06-13T05:56:26.971Z,2.27
2018-06-13T05:58:55.414Z,1.93
2018-06-13T06:01:23.875Z,1.97
2018-06-13T06:03:52.302Z,2.07
2018-06-13T06:06:20.768Z,2.17
2018-06-13T06:08:49.191Z,2.17
2018-06-13T06:11:17.645Z,1.93
2018-06-13T06:13:46.065Z,2.03
2018-06-13T06:16:14.492Z,1.87
2018-06-13T06:18:42.925Z,1.90
2018-06-13T06:21:11.406Z,1.90
2018-06-13T06:23:39.883Z,1.47
2018-06-13T06:26:08.415Z,1.90
2018-06-13T06:28:36.900Z,1.90
2018-06-13T06:31:05.362Z,1.50
2018-06-13T06:33:33.477Z,2.13
2018-06-13T06:36:02.807Z,1.90
2018-06-13T06:38:31.283Z,1.77
2018-06-13T06:40:59.732Z,2.77
2018-06-13T06:43:28.323Z,1.70
2018-06-13T06:45:56.775Z,1.60
2018-06-13T06:48:25.166Z,2.10
2018-06-13T06:50:53.633Z,1.87
2018-06-13T06:53:22.059Z,1.53
2018-06-13T06:55:50.520Z,1.73
2018-06-13T06:58:18.999Z,1.63
2018-06-13T07:00:47.415Z,2.07
2018-06-13T07:03:15.862Z,1.50
2018-06-13T07:05:44.376Z,2.77
2018-06-13T07:08:12.874Z,1.93
2018-06-13T07:10:41.335Z,1.50
2018-06-13T07:13:09.850Z,1.40
2018-06-13T07:15:38.307Z,1.53
2018-06-13T07:18:06.818Z,1.73
2018-06-13T07:20:35.253Z,1.70
2018-06-13T07:23:03.702Z,1.17
2018-06-13T07:25:32.132Z,1.23
2018-06-13T07:28:00.614Z,1.63
2018-06-13T07:30:29.105Z,1.73
2018-06-13T07:32:57.925Z,1.77
2018-06-13T07:35:26.606Z,1.90
2018-06-13T07:37:55.031Z,2.03
2018-06-13T07:40:23.506Z,1.70
2018-06-13T07:42:52.022Z,1.53
2018-06-13T07:45:20.531Z,1.70
2018-06-13T07:47:49.015Z,1.73
2018-06-13T07:50:17.515Z,1.60
2018-06-13T07:52:45.987Z,1.50
2018-06-13T07:55:14.517Z,1.77
2018-06-13T07:57:43.028Z,1.60
2018-06-13T08:00:11.574Z,1.60
2018-06-13T08:02:40.083Z,1.87
2018-06-13T08:05:08.595Z,1.93
2018-06-13T08:07:37.075Z,1.77
2018-06-13T08:10:05.653Z,1.60
2018-06-13T08:12:34.122Z,1.67
2018-06-13T08:15:02.580Z,1.93
2018-06-13T08:17:31.007Z,1.87
2018-06-13T08:19:59.454Z,1.60
2018-06-13T08:22:27.897Z,1.40
2018-06-13T08:24:56.379Z,2.10
2018-06-13T08:27:24.941Z,1.50
2018-06-13T08:29:53.408Z,2.17
2018-06-13T08:32:21.898Z,2.47
2018-06-13T08:34:50.622Z,1.43
2018-06-13T08:37:19.063Z,1.93
2018-06-13T08:39:47.543Z,2.00
2018-06-13T08:42:16.007Z,1.60
2018-06-13T08:44:44.414Z,1.70
2018-06-13T08:47:12.904Z,1.80
2018-06-13T08:49:41.414Z,1.67
2018-06-13T08:52:09.957Z,1.20
2018-06-13T08:54:38.392Z,1.77
2018-06-13T08:57:06.878Z,1.43
2018-06-13T08:59:35.337Z,1.47
2018-06-13T09:02:03.808Z,1.50
2018-06-13T09:04:32.279Z,1.30
2018-06-13T09:07:00.864Z,1.30
2018-06-13T09:09:29.289Z,1.93
2018-06-13T09:11:57.772Z,1.23
2018-06-13T09:14:26.223Z,1.43
2018-06-13T09:16:54.716Z,1.47
2018-06-13T09:19:23.158Z,1.33
2018-06-13T09:21:51.630Z,1.30
2018-06-13T09:24:20.052Z,1.50
2018-06-13T09:26:48.506Z,1.37
2018-06-13T09:29:17.050Z,1.60
2018-06-13T09:31:45.555Z,1.77
2018-06-13T09:34:14.017Z,1.53
2018-06-13T09:36:42.551Z,1.40
2018-06-13T09:39:11.008Z,1.27
2018-06-13T09:41:44.779Z,1.23
2018-06-13T09:44:13.359Z,1.40
2018-06-13T09:46:48.916Z,1.60
2018-06-13T09:49:10.320Z,1.77
2018-06-13T09:51:38.800Z,1.80
2018-06-13T09:54:07.251Z,1.80
2018-06-13T09:56:35.758Z,1.80
2018-06-13T09:59:20.468Z,1.60
2018-06-13T10:01:55.080Z,1.47
2018-06-13T10:04:23.599Z,1.53
2018-06-13T10:06:52.236Z,1.40
2018-06-13T10:09:20.704Z,1.70
2018-06-13T10:11:49.186Z,1.60
2018-06-13T10:14:17.781Z,1.90
2018-06-13T10:16:46.259Z,1.70
2018-06-13T10:19:14.781Z,1.73
2018-06-13T10:21:43.229Z,1.67
2018-06-13T10:24:11.705Z,1.93
2018-06-13T10:26:40.203Z,1.33
2018-06-13T10:29:08.680Z,2.30
2018-06-13T10:31:37.170Z,1.77
2018-06-13T10:34:05.613Z,1.97
2018-06-13T10:36:34.127Z,1.43
2018-06-13T10:39:02.594Z,1.70
2018-06-13T10:41:31.134Z,1.70
2018-06-13T10:43:59.584Z,1.87
2018-06-13T10:46:28.203Z,1.80
2018-06-13T10:48:56.618Z,1.70
2018-06-13T10:51:25.103Z,1.60
2018-06-13T10:53:53.612Z,1.80
2018-06-13T10:56:22.177Z,1.70
2018-06-13T10:58:50.615Z,1.53
2018-06-13T11:01:19.088Z,2.07
2018-06-13T11:03:47.568Z,1.80
2018-06-13T11:06:16.055Z,1.57
2018-06-13T11:08:44.572Z,1.50
2018-06-13T11:11:13.059Z,1.70
2018-06-13T11:13:41.542Z,2.50
2018-06-13T11:16:09.959Z,2.20
2018-06-13T11:18:38.422Z,1.83
2018-06-13T11:21:06.929Z,1.53
2018-06-13T11:23:35.378Z,1.90
2018-06-13T11:26:03.967Z,1.97
2018-06-13T11:28:32.431Z,2.20
2018-06-13T11:31:00.892Z,2.03
2018-06-13T11:33:29.425Z,1.97
2018-06-13T11:35:57.591Z,2.50
2018-06-13T11:38:26.090Z,2.30
2018-06-13T11:40:54.528Z,2.40
2018-06-13T11:43:23.052Z,2.37
2018-06-13T11:45:51.498Z,2.03
2018-06-13T11:48:19.966Z,2.23
2018-06-13T11:50:48.451Z,2.10
2018-06-13T11:53:17.106Z,2.67
2018-06-13T11:55:45.281Z,2.23
2018-06-13T11:58:13.889Z,2.50
2018-06-13T12:00:42.367Z,2.33
2018-06-13T12:03:10.827Z,2.40
2018-06-13T12:05:39.347Z,2.40
2018-06-13T12:08:07.802Z,2.00
2018-06-13T12:10:36.261Z,1.77
2018-06-13T12:13:04.912Z,2.00
2018-06-13T12:15:33.393Z,1.90
2018-06-13T12:18:01.843Z,1.80
2018-06-13T12:20:30.281Z,1.80
2018-06-13T12:22:58.894Z,1.90
2018-06-13T12:25:27.364Z,2.00
2018-06-13T12:27:55.942Z,1.60
2018-06-13T12:30:25.307Z,1.60
2018-06-13T12:32:54.050Z,2.07
2018-06-13T12:35:22.519Z,2.00
2018-06-13T12:37:51.037Z,2.47
2018-06-13T12:40:19.511Z,1.60
2018-06-13T12:42:47.958Z,2.10
2018-06-13T12:45:16.458Z,1.60
2018-06-13T12:47:44.954Z,1.70
2018-06-13T12:50:13.506Z,1.93
2018-06-13T12:52:42.070Z,2.00
2018-06-13T12:55:10.543Z,1.80
2018-06-13T12:57:43.448Z,2.10
2018-06-13T13:00:12.571Z,1.80
2018-06-13T13:02:41.035Z,1.70
2018-06-13T13:05:10.670Z,2.30
2018-06-13T13:07:39.194Z,1.73
2018-06-13T13:10:08.367Z,2.07
2018-06-13T13:12:36.847Z,1.80
2018-06-13T13:15:05.661Z,1.93
2018-06-13T13:17:34.165Z,2.13
2018-06-13T13:20:02.904Z,1.47
2018-06-13T13:22:31.352Z,1.47
2018-06-13T13:25:00.245Z,1.90
2018-06-13T13:27:28.828Z,1.67
2018-06-13T13:29:57.468Z,1.57
2018-06-13T13:32:29.338Z,1.70
2018-06-13T13:34:58.444Z,1.50
2018-06-13T13:37:26.975Z,1.60
2018-06-13T13:39:55.531Z,1.63
2018-06-13T13:42:24.084Z,1.77
2018-06-13T13:44:52.592Z,1.60
2018-06-13T13:47:21.136Z,1.40
2018-06-13T13:49:49.646Z,1.60
2018-06-13T13:52:18.175Z,1.40
2018-06-13T13:54:47.004Z,1.80
2018-06-13T13:57:15.525Z,1.90
2018-06-13T13:59:44.006Z,1.90
2018-06-13T14:02:12.593Z,1.73
2018-06-13T14:04:41.212Z,1.80
2018-06-13T14:07:09.810Z,2.02
2018-06-13T14:09:38.356Z,1.70
2018-06-13T14:12:07.077Z,1.63
2018-06-13T14:14:35.726Z,1.70
2018-06-13T14:17:04.391Z,1.73
2018-06-13T14:19:36.658Z,1.80
2018-06-13T14:22:05.260Z,1.90
2018-06-13T14:24:34.786Z,1.73
2018-06-13T14:27:03.372Z,1.73
2018-06-13T14:29:31.903Z,1.50
2018-06-13T14:32:02.439Z,1.90
2018-06-13T14:34:34.029Z,1.77
2018-06-13T14:37:02.587Z,1.50
2018-06-13T14:39:31.693Z,1.77
2018-06-13T14:42:00.223Z,1.90
2018-06-13T14:44:31.499Z,2.02
2018-06-13T14:47:00.077Z,1.50
2018-06-13T14:49:28.541Z,1.80
2018-06-13T14:51:58.261Z,1.40
2018-06-13T14:54:26.990Z,1.50
2018-06-13T14:56:55.579Z,1.70
2018-06-13T14:59:24.076Z,1.47
2018-06-13T15:01:52.687Z,1.77
2018-06-13T15:04:26.363Z,1.70
2018-06-13T15:07:00.502Z,1.77
2018-06-13T15:09:29.033Z,1.50
2018-06-13T15:11:57.465Z,1.50
2018-06-13T15:14:25.960Z,1.60
2018-06-13T15:16:54.407Z,1.70
2018-06-13T15:19:22.898Z,1.70
2018-06-13T15:21:53.241Z,1.77
2018-06-13T15:24:23.641Z,2.00
2018-06-13T15:26:58.134Z,1.60
2018-06-13T15:29:29.809Z,2.43
2018-06-13T15:31:58.281Z,1.90
2018-06-13T15:34:27.013Z,1.60
2018-06-13T15:36:55.674Z,1.70
2018-06-13T15:39:25.724Z,1.60
2018-06-13T15:41:54.259Z,1.73
2018-06-13T15:44:22.494Z,1.77
2018-06-13T15:46:52.109Z,1.70
2018-06-13T15:49:20.634Z,1.80
2018-06-13T15:51:49.140Z,1.47
2018-06-13T15:54:19.636Z,1.73
2018-06-13T15:56:48.182Z,1.87
2018-06-13T15:59:17.718Z,1.70
2018-06-13T16:01:48.493Z,1.80
2018-06-13T16:04:17.153Z,1.77
2018-06-13T16:06:45.714Z,1.80
2018-06-13T16:09:14.171Z,1.77
2018-06-13T16:11:42.716Z,1.60
2018-06-13T16:14:11.280Z,2.07
2018-06-13T16:16:39.800Z,1.97
2018-06-13T16:19:08.291Z,2.10
2018-06-13T16:21:36.814Z,1.87
2018-06-13T16:24:05.302Z,2.00
2018-06-13T16:26:33.851Z,1.63
2018-06-13T16:29:02.505Z,1.80
2018-06-13T16:31:31.637Z,2.10
2018-06-13T16:34:00.477Z,2.30
2018-06-13T16:36:28.958Z,2.03
2018-06-13T16:38:57.451Z,2.37
2018-06-13T16:41:26.699Z,2.30
2018-06-13T16:43:55.205Z,2.67
2018-06-13T16:46:23.671Z,1.97
2018-06-13T16:48:51.954Z,2.10
2018-06-13T16:51:31.722Z,1.73
2018-06-13T16:54:13.594Z,1.80
2018-06-13T16:56:42.790Z,2.07
2018-06-13T16:59:11.280Z,2.03
2018-06-13T17:01:39.777Z,1.77
2018-06-13T17:04:08.397Z,2.10
2018-06-13T17:06:36.853Z,2.40
2018-06-13T17:09:06.960Z,1.87
2018-06-13T17:11:35.445Z,1.90
2018-06-13T17:14:04.003Z,2.07
2018-06-13T17:16:32.485Z,1.60
2018-06-13T17:19:00.944Z,1.90
2018-06-13T17:21:29.382Z,2.00
2018-06-13T17:23:57.838Z,1.90
2018-06-13T17:26:26.293Z,2.43
2018-06-13T17:28:54.827Z,1.93
2018-06-13T17:31:23.261Z,2.20
2018-06-13T17:33:51.712Z,1.80
2018-06-13T17:36:20.248Z,1.90
2018-06-13T17:38:48.731Z,1.83
2018-06-13T17:41:17.186Z,2.23
2018-06-13T17:43:45.654Z,1.90
2018-06-13T17:46:14.145Z,1.80
2018-06-13T17:48:42.597Z,2.07
2018-06-13T17:51:11.094Z,2.10
2018-06-13T17:53:39.252Z,2.03
2018-06-13T17:56:07.715Z,1.77
2018-06-13T17:58:36.206Z,2.20
2018-06-13T18:01:04.738Z,2.00
2018-06-13T18:03:33.188Z,1.90
2018-06-13T18:06:01.667Z,2.07
2018-06-13T18:08:30.103Z,1.97
2018-06-13T18:10:58.665Z,1.93
2018-06-13T18:13:27.139Z,2.27
2018-06-13T18:15:55.610Z,2.50
2018-06-13T18:18:24.077Z,2.27
2018-06-13T18:20:52.554Z,2.77
2018-06-13T18:23:21.153Z,2.30
2018-06-13T18:25:49.598Z,2.17
2018-06-13T18:28:18.168Z,2.37
2018-06-13T18:30:46.728Z,2.23
2018-06-13T18:33:15.205Z,2.37
2018-06-13T18:35:43.750Z,2.20
2018-06-13T18:38:12.243Z,2.00
2018-06-13T18:40:40.704Z,2.00
2018-06-13T18:43:08.888Z,2.30
2018-06-13T18:45:37.377Z,1.90
2018-06-13T18:48:05.865Z,2.27
2018-06-13T18:50:34.379Z,1.90
2018-06-13T18:53:02.872Z,2.53
2018-06-13T18:55:31.384Z,1.80
2018-06-13T18:57:59.914Z,2.60
2018-06-13T19:00:28.459Z,2.50
2018-06-13T19:02:56.978Z,2.20
2018-06-13T19:05:25.616Z,2.27
2018-06-13T19:07:54.126Z,2.20
2018-06-13T19:10:22.609Z,2.07
2018-06-13T19:12:51.105Z,2.00
2018-06-13T19:15:19.612Z,2.00
2018-06-13T19:17:48.083Z,2.93
2018-06-13T19:20:16.586Z,2.27
2018-06-13T19:22:45.010Z,2.33
2018-06-13T19:25:13.528Z,2.27
2018-06-13T19:27:41.975Z,1.90
2018-06-13T19:30:10.543Z,2.40
2018-06-13T19:32:39.055Z,2.40
2018-06-13T19:35:07.543Z,2.10
2018-06-13T19:37:35.983Z,2.20
2018-06-13T19:40:04.186Z,2.23
2018-06-13T19:42:32.704Z,2.17
2018-06-13T19:45:01.185Z,2.03
2018-06-13T19:47:34.978Z,1.90
2018-06-13T19:50:03.553Z,1.90
2018-06-13T19:52:37.275Z,2.00
2018-06-13T19:55:10.875Z,2.67
2018-06-13T19:57:39.344Z,2.33
2018-06-13T20:00:07.846Z,2.00
2018-06-13T20:02:41.801Z,2.37
2018-06-13T20:05:15.494Z,1.80
2018-06-13T20:07:44.004Z,2.27
2018-06-13T20:10:12.500Z,1.80
2018-06-13T20:12:46.214Z,2.40
2018-06-13T20:15:20.177Z,2.00
2018-06-13T20:17:53.919Z,2.10
2018-06-13T20:20:22.416Z,2.17
2018-06-13T20:22:50.867Z,1.70
2018-06-13T20:25:25.174Z,2.00
2018-06-13T20:27:59.015Z,1.80
2018-06-13T20:30:32.946Z,2.20
2018-06-13T20:33:01.545Z,1.50
2018-06-13T20:35:29.971Z,2.10
2018-06-13T20:37:58.451Z,2.00
2018-06-13T20:40:27.015Z,2.30
2018-06-13T20:42:55.550Z,1.90
2018-06-13T20:45:24.004Z,2.13
2018-06-13T20:47:52.779Z,2.67
2018-06-13T20:50:21.292Z,2.33
2018-06-13T20:52:49.834Z,1.80
2018-06-13T20:55:18.332Z,2.23
2018-06-13T20:57:46.832Z,1.93
2018-06-13T21:00:15.361Z,1.87
2018-06-13T21:02:43.840Z,1.83
2018-06-13T21:05:12.338Z,1.90
2018-06-13T21:07:40.826Z,2.03
2018-06-13T21:10:09.298Z,2.53
2018-06-13T21:12:37.785Z,2.40
2018-06-13T21:15:06.271Z,2.47
2018-06-13T21:17:34.871Z,1.80
2018-06-13T21:20:03.503Z,2.13
2018-06-13T21:22:31.943Z,2.80
2018-06-13T21:25:00.420Z,2.20
2018-06-13T21:27:28.928Z,1.90
2018-06-13T21:29:57.478Z,2.00
2018-06-13T21:32:26.016Z,1.73
2018-06-13T21:34:54.589Z,2.37
2018-06-13T21:37:23.049Z,2.23
2018-06-13T21:39:51.486Z,1.67
2018-06-13T21:42:19.977Z,2.00
2018-06-13T21:44:48.419Z,1.93
2018-06-13T21:47:17.083Z,2.10
2018-06-13T21:49:45.515Z,1.93
2018-06-13T21:52:14.003Z,2.13
2018-06-13T21:54:42.531Z,2.40
2018-06-13T21:57:11.059Z,2.10
2018-06-13T21:59:39.547Z,2.17
2018-06-13T22:02:08.073Z,1.80
2018-06-13T22:04:36.576Z,2.10
2018-06-13T22:07:05.091Z,2.07
2018-06-13T22:09:33.622Z,2.20
2018-06-13T22:12:02.072Z,2.60
2018-06-13T22:14:30.596Z,2.30
2018-06-13T22:16:59.045Z,3.00
2018-06-13T22:19:27.609Z,3.03
2018-06-13T22:21:56.065Z,2.77
2018-06-13T22:24:24.602Z,3.10
2018-06-13T22:26:53.110Z,3.17
2018-06-13T22:29:21.652Z,2.53
2018-06-13T22:31:49.862Z,2.93
2018-06-13T22:34:18.374Z,2.57
2018-06-13T22:36:47.197Z,2.33
2018-06-13T22:39:15.854Z,2.20
2018-06-13T22:41:44.428Z,2.20
2018-06-13T22:44:12.997Z,2.30
2018-06-13T22:46:41.535Z,2.00
2018-06-13T22:49:10.142Z,2.07
2018-06-13T22:51:38.767Z,2.10
2018-06-13T22:54:07.441Z,2.10
2018-06-13T22:56:35.957Z,1.90
2018-06-13T22:59:04.407Z,2.50
2018-06-13T23:01:33.060Z,1.97
2018-06-13T23:04:01.581Z,2.40
2018-06-13T23:06:30.072Z,2.50
2018-06-13T23:08:58.636Z,2.40
2018-06-13T23:11:27.238Z,2.20
2018-06-13T23:13:55.689Z,2.30
2018-06-13T23:16:24.275Z,2.20
2018-06-13T23:18:52.785Z,2.20
2018-06-13T23:21:21.273Z,1.97
2018-06-13T23:23:49.882Z,2.37
2018-06-13T23:26:18.396Z,2.30
2018-06-13T23:28:47.065Z,2.43
2018-06-13T23:31:15.611Z,2.10
2018-06-13T23:33:44.202Z,2.23
2018-06-13T23:36:12.758Z,2.30
2018-06-13T23:38:41.320Z,2.53
2018-06-13T23:41:09.825Z,2.30
2018-06-13T23:43:38.362Z,2.47
2018-06-13T23:46:06.901Z,2.60
2018-06-13T23:48:35.471Z,2.50
2018-06-13T23:51:04.026Z,2.17
2018-06-13T23:53:32.496Z,2.60
2018-06-13T23:56:00.967Z,2.40
2018-06-13T23:58:29.453Z,2.67
